sensor_id;sensor_type;location;lat;lon;timestamp;P1;durP1;ratioP1;P2;durP2;ratioP2
37805;SDS011;25082;50.870;0.022;2023-02-24T00:01:35;105.95;;;35.50;;
37805;SDS011;25082;50.870;0.022;2023-02-24T00:04:02;98.32;;;34.13;;
37805;SDS011;25082;50.870;0.022;2023-02-24T00:06:31;81.53;;;31.55;;
37805;SDS011;25082;50.870;0.022;2023-02-24T00:11:32;84.82;;;32.25;;
37805;SDS011;25082;50.870;0.022;2023-02-24T00:14:00;86.70;;;29.40;;
37805;SDS011;25082;50.870;0.022;2023-02-24T00:16:30;69.45;;;24.08;;
37805;SDS011;25082;50.870;0.022;2023-02-24T00:18:56;74.18;;;25.23;;
37805;SDS011;25082;50.870;0.022;2023-02-24T00:21:22;59.38;;;23.83;;
37805;SDS011;25082;50.870;0.022;2023-02-24T00:23:48;75.50;;;23.95;;
37805;SDS011;25082;50.870;0.022;2023-02-24T00:26:14;59.78;;;22.27;;
37805;SDS011;25082;50.870;0.022;2023-02-24T00:28:41;67.22;;;21.73;;
37805;SDS011;25082;50.870;0.022;2023-02-24T00:31:12;54.88;;;20.17;;
37805;SDS011;25082;50.870;0.022;2023-02-24T00:33:43;59.67;;;19.17;;
37805;SDS011;25082;50.870;0.022;2023-02-24T00:36:10;49.05;;;18.25;;
37805;SDS011;25082;50.870;0.022;2023-02-24T00:38:41;57.77;;;17.67;;
37805;SDS011;25082;50.870;0.022;2023-02-24T00:41:12;47.50;;;17.65;;
37805;SDS011;25082;50.870;0.022;2023-02-24T00:43:42;43.67;;;15.13;;
37805;SDS011;25082;50.870;0.022;2023-02-24T00:46:15;42.28;;;15.48;;
37805;SDS011;25082;50.870;0.022;2023-02-24T00:48:43;32.92;;;13.15;;
37805;SDS011;25082;50.870;0.022;2023-02-24T00:51:16;35.83;;;13.63;;
37805;SDS011;25082;50.870;0.022;2023-02-24T00:53:47;38.47;;;12.73;;
37805;SDS011;25082;50.870;0.022;2023-02-24T00:56:20;36.83;;;12.15;;
37805;SDS011;25082;50.870;0.022;2023-02-24T00:58:46;34.88;;;12.25;;
37805;SDS011;25082;50.870;0.022;2023-02-24T01:01:13;36.05;;;12.57;;
37805;SDS011;25082;50.870;0.022;2023-02-24T01:03:41;29.50;;;10.57;;
37805;SDS011;25082;50.870;0.022;2023-02-24T01:06:08;29.48;;;11.70;;
37805;SDS011;25082;50.870;0.022;2023-02-24T01:08:36;30.30;;;10.23;;
37805;SDS011;25082;50.870;0.022;2023-02-24T01:11:12;29.60;;;9.45;;
37805;SDS011;25082;50.870;0.022;2023-02-24T01:13:57;27.90;;;9.43;;
37805;SDS011;25082;50.870;0.022;2023-02-24T01:16:23;23.23;;;8.65;;
37805;SDS011;25082;50.870;0.022;2023-02-24T01:18:49;26.40;;;9.45;;
37805;SDS011;25082;50.870;0.022;2023-02-24T01:21:16;23.55;;;9.23;;
37805;SDS011;25082;50.870;0.022;2023-02-24T01:23:46;21.67;;;8.80;;
37805;SDS011;25082;50.870;0.022;2023-02-24T01:26:14;24.92;;;7.82;;
37805;SDS011;25082;50.870;0.022;2023-02-24T01:28:43;17.83;;;6.97;;
37805;SDS011;25082;50.870;0.022;2023-02-24T01:31:10;22.27;;;8.40;;
37805;SDS011;25082;50.870;0.022;2023-02-24T01:33:37;18.92;;;7.13;;
37805;SDS011;25082;50.870;0.022;2023-02-24T01:36:10;21.35;;;6.93;;
37805;SDS011;25082;50.870;0.022;2023-02-24T01:38:37;15.98;;;5.82;;
37805;SDS011;25082;50.870;0.022;2023-02-24T01:41:06;13.48;;;6.10;;
37805;SDS011;25082;50.870;0.022;2023-02-24T01:43:32;18.80;;;7.28;;
37805;SDS011;25082;50.870;0.022;2023-02-24T01:46:18;17.95;;;5.95;;
37805;SDS011;25082;50.870;0.022;2023-02-24T01:48:48;17.80;;;6.50;;
37805;SDS011;25082;50.870;0.022;2023-02-24T01:51:14;16.38;;;5.90;;
37805;SDS011;25082;50.870;0.022;2023-02-24T01:53:41;12.98;;;5.55;;
37805;SDS011;25082;50.870;0.022;2023-02-24T01:56:07;16.80;;;5.65;;
37805;SDS011;25082;50.870;0.022;2023-02-24T01:58:37;13.10;;;5.07;;
37805;SDS011;25082;50.870;0.022;2023-02-24T02:01:05;12.00;;;5.57;;
37805;SDS011;25082;50.870;0.022;2023-02-24T02:03:37;12.98;;;4.60;;
37805;SDS011;25082;50.870;0.022;2023-02-24T02:06:09;12.07;;;4.63;;
37805;SDS011;25082;50.870;0.022;2023-02-24T02:08:37;13.20;;;4.95;;
37805;SDS011;25082;50.870;0.022;2023-02-24T02:11:08;10.45;;;4.50;;
37805;SDS011;25082;50.870;0.022;2023-02-24T02:13:36;14.10;;;4.63;;
37805;SDS011;25082;50.870;0.022;2023-02-24T02:32:54;10.15;;;3.92;;
37805;SDS011;25082;50.870;0.022;2023-02-24T02:35:40;9.93;;;3.47;;
37805;SDS011;25082;50.870;0.022;2023-02-24T02:38:17;11.02;;;3.38;;
37805;SDS011;25082;50.870;0.022;2023-02-24T02:40:59;9.30;;;3.75;;
37805;SDS011;25082;50.870;0.022;2023-02-24T02:43:50;8.68;;;3.17;;
37805;SDS011;25082;50.870;0.022;2023-02-24T02:46:34;9.27;;;3.88;;
37805;SDS011;25082;50.870;0.022;2023-02-24T02:49:02;6.97;;;3.42;;
37805;SDS011;25082;50.870;0.022;2023-02-24T02:51:37;10.52;;;3.55;;
37805;SDS011;25082;50.870;0.022;2023-02-24T02:54:09;6.00;;;2.92;;
37805;SDS011;25082;50.870;0.022;2023-02-24T02:57:06;11.23;;;3.72;;
37805;SDS011;25082;50.870;0.022;2023-02-24T02:59:36;10.02;;;3.20;;
37805;SDS011;25082;50.870;0.022;2023-02-24T03:02:13;9.32;;;3.05;;
37805;SDS011;25082;50.870;0.022;2023-02-24T03:04:48;9.23;;;3.15;;
37805;SDS011;25082;50.870;0.022;2023-02-24T03:07:16;6.75;;;2.92;;
37805;SDS011;25082;50.870;0.022;2023-02-24T03:09:47;7.57;;;2.63;;
37805;SDS011;25082;50.870;0.022;2023-02-24T03:12:22;8.40;;;3.15;;
37805;SDS011;25082;50.870;0.022;2023-02-24T03:14:52;8.48;;;2.92;;
37805;SDS011;25082;50.870;0.022;2023-02-24T03:17:23;8.73;;;2.80;;
37805;SDS011;25082;50.870;0.022;2023-02-24T03:19:54;9.32;;;3.10;;
37805;SDS011;25082;50.870;0.022;2023-02-24T03:22:46;8.65;;;3.08;;
37805;SDS011;25082;50.870;0.022;2023-02-24T03:25:19;7.40;;;2.97;;
37805;SDS011;25082;50.870;0.022;2023-02-24T03:27:49;9.05;;;2.97;;
37805;SDS011;25082;50.870;0.022;2023-02-24T03:30:22;11.65;;;4.25;;
37805;SDS011;25082;50.870;0.022;2023-02-24T03:33:18;6.00;;;2.17;;
37805;SDS011;25082;50.870;0.022;2023-02-24T03:35:48;8.20;;;3.28;;
37805;SDS011;25082;50.870;0.022;2023-02-24T03:38:15;7.90;;;3.03;;
37805;SDS011;25082;50.870;0.022;2023-02-24T03:40:42;6.43;;;3.13;;
37805;SDS011;25082;50.870;0.022;2023-02-24T03:43:28;10.30;;;3.47;;
37805;SDS011;25082;50.870;0.022;2023-02-24T03:45:56;6.18;;;3.08;;
37805;SDS011;25082;50.870;0.022;2023-02-24T03:48:24;8.80;;;3.55;;
37805;SDS011;25082;50.870;0.022;2023-02-24T03:50:52;6.05;;;2.42;;
37805;SDS011;25082;50.870;0.022;2023-02-24T04:01:46;7.10;;;2.75;;
37805;SDS011;25082;50.870;0.022;2023-02-24T04:04:30;6.70;;;2.35;;
37805;SDS011;25082;50.870;0.022;2023-02-24T04:10:02;6.05;;;2.58;;
37805;SDS011;25082;50.870;0.022;2023-02-24T04:17:43;8.25;;;2.85;;
37805;SDS011;25082;50.870;0.022;2023-02-24T04:20:17;8.20;;;2.63;;
37805;SDS011;25082;50.870;0.022;2023-02-24T04:22:47;7.13;;;2.85;;
37805;SDS011;25082;50.870;0.022;2023-02-24T04:25:18;5.38;;;2.30;;
37805;SDS011;25082;50.870;0.022;2023-02-24T04:27:49;7.70;;;2.85;;
37805;SDS011;25082;50.870;0.022;2023-02-24T04:30:20;10.07;;;3.00;;
37805;SDS011;25082;50.870;0.022;2023-02-24T04:32:48;8.80;;;2.80;;
37805;SDS011;25082;50.870;0.022;2023-02-24T04:35:17;8.93;;;2.58;;
37805;SDS011;25082;50.870;0.022;2023-02-24T04:37:44;11.13;;;3.17;;
37805;SDS011;25082;50.870;0.022;2023-02-24T04:40:11;6.63;;;2.05;;
37805;SDS011;25082;50.870;0.022;2023-02-24T04:42:41;7.25;;;2.55;;
37805;SDS011;25082;50.870;0.022;2023-02-24T04:47:43;6.13;;;2.38;;
37805;SDS011;25082;50.870;0.022;2023-02-24T04:50:18;5.85;;;2.47;;
37805;SDS011;25082;50.870;0.022;2023-02-24T04:53:07;6.70;;;2.90;;
37805;SDS011;25082;50.870;0.022;2023-02-24T04:55:44;8.82;;;2.92;;
37805;SDS011;25082;50.870;0.022;2023-02-24T05:00:43;7.82;;;2.50;;
37805;SDS011;25082;50.870;0.022;2023-02-24T05:03:11;8.50;;;2.63;;
37805;SDS011;25082;50.870;0.022;2023-02-24T05:05:38;9.77;;;3.22;;
37805;SDS011;25082;50.870;0.022;2023-02-24T05:08:08;7.00;;;2.75;;
37805;SDS011;25082;50.870;0.022;2023-02-24T05:10:36;9.70;;;3.33;;
37805;SDS011;25082;50.870;0.022;2023-02-24T05:13:03;6.82;;;2.28;;
37805;SDS011;25082;50.870;0.022;2023-02-24T05:15:30;9.88;;;3.00;;
37805;SDS011;25082;50.870;0.022;2023-02-24T05:18:02;7.55;;;2.63;;
37805;SDS011;25082;50.870;0.022;2023-02-24T05:20:36;6.78;;;2.28;;
37805;SDS011;25082;50.870;0.022;2023-02-24T05:23:28;7.57;;;2.38;;
37805;SDS011;25082;50.870;0.022;2023-02-24T05:25:58;8.55;;;3.13;;
37805;SDS011;25082;50.870;0.022;2023-02-24T05:28:25;7.78;;;2.58;;
37805;SDS011;25082;50.870;0.022;2023-02-24T05:31:02;7.22;;;2.53;;
37805;SDS011;25082;50.870;0.022;2023-02-24T05:33:30;8.15;;;2.60;;
37805;SDS011;25082;50.870;0.022;2023-02-24T05:35:56;7.55;;;2.63;;
37805;SDS011;25082;50.870;0.022;2023-02-24T05:38:27;9.05;;;2.38;;
37805;SDS011;25082;50.870;0.022;2023-02-24T05:40:54;9.23;;;2.53;;
37805;SDS011;25082;50.870;0.022;2023-02-24T05:43:28;6.72;;;3.22;;
37805;SDS011;25082;50.870;0.022;2023-02-24T05:45:58;6.63;;;2.47;;
37805;SDS011;25082;50.870;0.022;2023-02-24T05:48:28;6.22;;;2.67;;
37805;SDS011;25082;50.870;0.022;2023-02-24T05:50:59;4.38;;;2.47;;
37805;SDS011;25082;50.870;0.022;2023-02-24T05:53:26;5.95;;;2.83;;
37805;SDS011;25082;50.870;0.022;2023-02-24T05:55:52;6.55;;;2.53;;
37805;SDS011;25082;50.870;0.022;2023-02-24T05:58:18;5.72;;;2.28;;
37805;SDS011;25082;50.870;0.022;2023-02-24T06:00:43;6.80;;;2.45;;
37805;SDS011;25082;50.870;0.022;2023-02-24T06:03:11;9.52;;;2.75;;
37805;SDS011;25082;50.870;0.022;2023-02-24T06:05:59;7.78;;;2.50;;
37805;SDS011;25082;50.870;0.022;2023-02-24T06:08:32;8.32;;;2.72;;
37805;SDS011;25082;50.870;0.022;2023-02-24T06:11:09;8.25;;;2.95;;
37805;SDS011;25082;50.870;0.022;2023-02-24T06:13:36;5.95;;;2.50;;
37805;SDS011;25082;50.870;0.022;2023-02-24T06:16:03;6.85;;;2.38;;
37805;SDS011;25082;50.870;0.022;2023-02-24T06:18:30;6.38;;;2.10;;
37805;SDS011;25082;50.870;0.022;2023-02-24T06:21:01;8.25;;;2.47;;
37805;SDS011;25082;50.870;0.022;2023-02-24T06:23:27;6.05;;;2.08;;
37805;SDS011;25082;50.870;0.022;2023-02-24T06:25:53;6.15;;;2.00;;
37805;SDS011;25082;50.870;0.022;2023-02-24T06:28:22;8.98;;;3.35;;
37805;SDS011;25082;50.870;0.022;2023-02-24T06:30:48;7.07;;;2.30;;
37805;SDS011;25082;50.870;0.022;2023-02-24T06:33:14;6.78;;;2.50;;
37805;SDS011;25082;50.870;0.022;2023-02-24T06:35:40;5.68;;;2.00;;
37805;SDS011;25082;50.870;0.022;2023-02-24T06:38:06;5.80;;;2.10;;
37805;SDS011;25082;50.870;0.022;2023-02-24T06:40:32;7.05;;;2.42;;
37805;SDS011;25082;50.870;0.022;2023-02-24T06:42:58;6.53;;;2.50;;
37805;SDS011;25082;50.870;0.022;2023-02-24T06:45:23;6.78;;;2.67;;
37805;SDS011;25082;50.870;0.022;2023-02-24T06:47:50;4.93;;;2.33;;
37805;SDS011;25082;50.870;0.022;2023-02-24T06:50:16;9.02;;;2.30;;
37805;SDS011;25082;50.870;0.022;2023-02-24T06:52:44;6.10;;;2.03;;
37805;SDS011;25082;50.870;0.022;2023-02-24T06:55:11;5.22;;;2.45;;
37805;SDS011;25082;50.870;0.022;2023-02-24T06:57:58;6.95;;;2.55;;
37805;SDS011;25082;50.870;0.022;2023-02-24T07:00:29;5.60;;;2.40;;
37805;SDS011;25082;50.870;0.022;2023-02-24T07:03:12;6.38;;;1.58;;
37805;SDS011;25082;50.870;0.022;2023-02-24T07:05:46;9.00;;;2.60;;
37805;SDS011;25082;50.870;0.022;2023-02-24T07:08:35;7.55;;;2.70;;
37805;SDS011;25082;50.870;0.022;2023-02-24T07:11:02;6.82;;;2.30;;
37805;SDS011;25082;50.870;0.022;2023-02-24T07:13:30;8.52;;;3.30;;
37805;SDS011;25082;50.870;0.022;2023-02-24T07:15:58;6.80;;;2.40;;
37805;SDS011;25082;50.870;0.022;2023-02-24T07:18:31;5.82;;;1.98;;
37805;SDS011;25082;50.870;0.022;2023-02-24T07:21:00;5.95;;;2.17;;
37805;SDS011;25082;50.870;0.022;2023-02-24T07:23:29;7.32;;;2.50;;
37805;SDS011;25082;50.870;0.022;2023-02-24T07:25:55;7.05;;;2.17;;
37805;SDS011;25082;50.870;0.022;2023-02-24T07:28:24;7.13;;;2.47;;
37805;SDS011;25082;50.870;0.022;2023-02-24T07:30:50;6.38;;;2.42;;
37805;SDS011;25082;50.870;0.022;2023-02-24T07:33:16;7.47;;;2.42;;
37805;SDS011;25082;50.870;0.022;2023-02-24T07:35:48;7.40;;;3.10;;
37805;SDS011;25082;50.870;0.022;2023-02-24T07:38:15;6.18;;;2.65;;
37805;SDS011;25082;50.870;0.022;2023-02-24T07:40:46;4.03;;;2.03;;
37805;SDS011;25082;50.870;0.022;2023-02-24T07:43:14;9.60;;;3.00;;
37805;SDS011;25082;50.870;0.022;2023-02-24T07:45:40;10.18;;;2.85;;
37805;SDS011;25082;50.870;0.022;2023-02-24T07:48:06;5.22;;;2.50;;
37805;SDS011;25082;50.870;0.022;2023-02-24T07:50:32;6.55;;;2.25;;
37805;SDS011;25082;50.870;0.022;2023-02-24T07:52:58;6.68;;;2.22;;
37805;SDS011;25082;50.870;0.022;2023-02-24T07:55:24;6.47;;;2.08;;
37805;SDS011;25082;50.870;0.022;2023-02-24T07:57:55;5.82;;;2.10;;
37805;SDS011;25082;50.870;0.022;2023-02-24T08:00:21;7.95;;;2.55;;
37805;SDS011;25082;50.870;0.022;2023-02-24T08:02:53;13.23;;;2.80;;
37805;SDS011;25082;50.870;0.022;2023-02-24T08:05:20;6.20;;;2.58;;
37805;SDS011;25082;50.870;0.022;2023-02-24T08:07:48;9.23;;;2.20;;
37805;SDS011;25082;50.870;0.022;2023-02-24T08:10:17;7.50;;;2.85;;
37805;SDS011;25082;50.870;0.022;2023-02-24T08:12:53;6.30;;;2.42;;
37805;SDS011;25082;50.870;0.022;2023-02-24T08:15:21;6.80;;;2.58;;
37805;SDS011;25082;50.870;0.022;2023-02-24T08:17:49;4.57;;;2.47;;
37805;SDS011;25082;50.870;0.022;2023-02-24T08:20:18;7.97;;;2.72;;
37805;SDS011;25082;50.870;0.022;2023-02-24T08:22:45;8.88;;;2.70;;
37805;SDS011;25082;50.870;0.022;2023-02-24T08:25:16;6.93;;;2.35;;
37805;SDS011;25082;50.870;0.022;2023-02-24T08:27:50;6.63;;;2.00;;
37805;SDS011;25082;50.870;0.022;2023-02-24T08:30:20;5.70;;;2.60;;
37805;SDS011;25082;50.870;0.022;2023-02-24T08:32:48;5.05;;;2.40;;
37805;SDS011;25082;50.870;0.022;2023-02-24T08:35:21;8.52;;;3.15;;
37805;SDS011;25082;50.870;0.022;2023-02-24T08:37:53;8.00;;;2.88;;
37805;SDS011;25082;50.870;0.022;2023-02-24T08:40:24;6.72;;;2.60;;
37805;SDS011;25082;50.870;0.022;2023-02-24T08:43:15;8.65;;;2.42;;
37805;SDS011;25082;50.870;0.022;2023-02-24T08:48:15;10.00;;;2.35;;
37805;SDS011;25082;50.870;0.022;2023-02-24T08:50:54;17.48;;;3.13;;
37805;SDS011;25082;50.870;0.022;2023-02-24T08:53:21;12.98;;;3.33;;
37805;SDS011;25082;50.870;0.022;2023-02-24T08:55:53;9.23;;;3.08;;
37805;SDS011;25082;50.870;0.022;2023-02-24T08:58:20;18.17;;;3.10;;
37805;SDS011;25082;50.870;0.022;2023-02-24T09:00:54;11.68;;;2.78;;
37805;SDS011;25082;50.870;0.022;2023-02-24T09:03:24;17.45;;;3.20;;
37805;SDS011;25082;50.870;0.022;2023-02-24T09:05:56;15.85;;;3.78;;
37805;SDS011;25082;50.870;0.022;2023-02-24T09:08:25;12.68;;;2.65;;
37805;SDS011;25082;50.870;0.022;2023-02-24T09:10:57;13.50;;;3.65;;
37805;SDS011;25082;50.870;0.022;2023-02-24T09:13:32;7.25;;;2.28;;
37805;SDS011;25082;50.870;0.022;2023-02-24T09:15:59;15.23;;;2.55;;
37805;SDS011;25082;50.870;0.022;2023-02-24T09:18:26;8.18;;;2.58;;
37805;SDS011;25082;50.870;0.022;2023-02-24T09:21:06;10.07;;;2.53;;
37805;SDS011;25082;50.870;0.022;2023-02-24T09:24:00;8.95;;;2.88;;
37805;SDS011;25082;50.870;0.022;2023-02-24T09:26:32;12.68;;;3.03;;
37805;SDS011;25082;50.870;0.022;2023-02-24T09:29:08;13.57;;;3.05;;
37805;SDS011;25082;50.870;0.022;2023-02-24T09:31:57;19.25;;;4.70;;
37805;SDS011;25082;50.870;0.022;2023-02-24T09:34:33;12.40;;;3.42;;
37805;SDS011;25082;50.870;0.022;2023-02-24T09:37:00;13.07;;;3.17;;
37805;SDS011;25082;50.870;0.022;2023-02-24T09:39:29;15.35;;;3.58;;
37805;SDS011;25082;50.870;0.022;2023-02-24T09:42:23;13.15;;;3.42;;
37805;SDS011;25082;50.870;0.022;2023-02-24T09:45:04;14.20;;;3.50;;
37805;SDS011;25082;50.870;0.022;2023-02-24T09:47:39;16.10;;;3.47;;
37805;SDS011;25082;50.870;0.022;2023-02-24T09:53:02;11.85;;;2.83;;
37805;SDS011;25082;50.870;0.022;2023-02-24T09:55:52;20.33;;;3.63;;
37805;SDS011;25082;50.870;0.022;2023-02-24T09:58:43;15.00;;;3.10;;
37805;SDS011;25082;50.870;0.022;2023-02-24T10:03:55;11.32;;;3.08;;
37805;SDS011;25082;50.870;0.022;2023-02-24T10:06:34;12.23;;;3.17;;
37805;SDS011;25082;50.870;0.022;2023-02-24T10:09:07;16.65;;;3.50;;
37805;SDS011;25082;50.870;0.022;2023-02-24T10:14:17;10.35;;;2.72;;
37805;SDS011;25082;50.870;0.022;2023-02-24T10:16:47;12.88;;;3.22;;
37805;SDS011;25082;50.870;0.022;2023-02-24T10:19:35;10.88;;;3.50;;
37805;SDS011;25082;50.870;0.022;2023-02-24T10:22:15;24.70;;;4.00;;
37805;SDS011;25082;50.870;0.022;2023-02-24T10:27:51;18.70;;;4.25;;
37805;SDS011;25082;50.870;0.022;2023-02-24T10:30:42;20.13;;;3.63;;
37805;SDS011;25082;50.870;0.022;2023-02-24T10:35:44;20.48;;;3.50;;
37805;SDS011;25082;50.870;0.022;2023-02-24T10:38:10;17.33;;;3.05;;
37805;SDS011;25082;50.870;0.022;2023-02-24T10:40:47;16.27;;;4.05;;
37805;SDS011;25082;50.870;0.022;2023-02-24T10:43:21;23.35;;;3.95;;
37805;SDS011;25082;50.870;0.022;2023-02-24T10:45:59;18.27;;;3.78;;
37805;SDS011;25082;50.870;0.022;2023-02-24T10:48:41;13.82;;;3.63;;
37805;SDS011;25082;50.870;0.022;2023-02-24T10:51:16;28.60;;;5.15;;
37805;SDS011;25082;50.870;0.022;2023-02-24T10:53:48;15.05;;;3.08;;
37805;SDS011;25082;50.870;0.022;2023-02-24T10:56:41;26.92;;;3.88;;
37805;SDS011;25082;50.870;0.022;2023-02-24T10:59:19;10.43;;;2.58;;
37805;SDS011;25082;50.870;0.022;2023-02-24T11:02:15;18.33;;;3.00;;
37805;SDS011;25082;50.870;0.022;2023-02-24T11:04:54;16.20;;;3.40;;
37805;SDS011;25082;50.870;0.022;2023-02-24T11:07:20;23.83;;;3.58;;
37805;SDS011;25082;50.870;0.022;2023-02-24T11:10:05;20.50;;;3.95;;
37805;SDS011;25082;50.870;0.022;2023-02-24T11:12:47;18.55;;;3.92;;
37805;SDS011;25082;50.870;0.022;2023-02-24T11:15:36;14.55;;;3.15;;
37805;SDS011;25082;50.870;0.022;2023-02-24T11:18:22;20.50;;;4.43;;
37805;SDS011;25082;50.870;0.022;2023-02-24T11:20:51;29.92;;;4.47;;
37805;SDS011;25082;50.870;0.022;2023-02-24T11:23:26;25.33;;;5.40;;
37805;SDS011;25082;50.870;0.022;2023-02-24T11:26:15;29.33;;;4.28;;
37805;SDS011;25082;50.870;0.022;2023-02-24T11:34:43;23.80;;;5.63;;
37805;SDS011;25082;50.870;0.022;2023-02-24T11:37:37;19.30;;;4.85;;
37805;SDS011;25082;50.870;0.022;2023-02-24T11:40:26;21.63;;;5.03;;
37805;SDS011;25082;50.870;0.022;2023-02-24T11:43:10;24.85;;;5.70;;
37805;SDS011;25082;50.870;0.022;2023-02-24T11:46:30;25.85;;;5.32;;
37805;SDS011;25082;50.870;0.022;2023-02-24T11:48:38;29.85;;;5.10;;
37805;SDS011;25082;50.870;0.022;2023-02-24T11:51:13;16.00;;;4.55;;
37805;SDS011;25082;50.870;0.022;2023-02-24T11:56:26;27.30;;;4.80;;
37805;SDS011;25082;50.870;0.022;2023-02-24T11:59:07;25.13;;;5.28;;
37805;SDS011;25082;50.870;0.022;2023-02-24T12:07:15;20.17;;;5.38;;
37805;SDS011;25082;50.870;0.022;2023-02-24T12:09:47;17.02;;;4.78;;
37805;SDS011;25082;50.870;0.022;2023-02-24T12:15:31;15.75;;;5.38;;
37805;SDS011;25082;50.870;0.022;2023-02-24T12:23:54;10.02;;;3.50;;
37805;SDS011;25082;50.870;0.022;2023-02-24T12:26:27;12.63;;;4.10;;
37805;SDS011;25082;50.870;0.022;2023-02-24T12:31:55;16.80;;;4.65;;
37805;SDS011;25082;50.870;0.022;2023-02-24T12:34:49;16.38;;;6.35;;
37805;SDS011;25082;50.870;0.022;2023-02-24T12:55:00;13.60;;;4.20;;
37805;SDS011;25082;50.870;0.022;2023-02-24T12:57:17;11.07;;;4.30;;
37805;SDS011;25082;50.870;0.022;2023-02-24T12:59:51;11.13;;;4.28;;
37805;SDS011;25082;50.870;0.022;2023-02-24T13:05:15;9.13;;;3.58;;
37805;SDS011;25082;50.870;0.022;2023-02-24T13:10:29;14.25;;;4.18;;
37805;SDS011;25082;50.870;0.022;2023-02-24T13:13:09;12.80;;;4.82;;
37805;SDS011;25082;50.870;0.022;2023-02-24T13:15:51;28.45;;;5.65;;
37805;SDS011;25082;50.870;0.022;2023-02-24T13:18:26;14.75;;;5.00;;
37805;SDS011;25082;50.870;0.022;2023-02-24T13:23:33;11.45;;;4.70;;
37805;SDS011;25082;50.870;0.022;2023-02-24T13:26:00;15.57;;;5.30;;
37805;SDS011;25082;50.870;0.022;2023-02-24T13:28:28;11.05;;;5.20;;
37805;SDS011;25082;50.870;0.022;2023-02-24T13:31:05;11.07;;;4.75;;
37805;SDS011;25082;50.870;0.022;2023-02-24T13:33:35;9.15;;;4.15;;
37805;SDS011;25082;50.870;0.022;2023-02-24T13:38:37;10.02;;;3.35;;
37805;SDS011;25082;50.870;0.022;2023-02-24T13:41:06;13.20;;;3.88;;
37805;SDS011;25082;50.870;0.022;2023-02-24T13:47:14;10.45;;;2.92;;
37805;SDS011;25082;50.870;0.022;2023-02-24T14:02:28;8.93;;;2.63;;
37805;SDS011;25082;50.870;0.022;2023-02-24T14:04:56;10.13;;;3.28;;
37805;SDS011;25082;50.870;0.022;2023-02-24T14:07:32;10.15;;;2.53;;
37805;SDS011;25082;50.870;0.022;2023-02-24T14:10:01;10.55;;;3.13;;
37805;SDS011;25082;50.870;0.022;2023-02-24T14:12:30;7.05;;;2.47;;
37805;SDS011;25082;50.870;0.022;2023-02-24T14:14:59;13.07;;;3.58;;
37805;SDS011;25082;50.870;0.022;2023-02-24T14:17:28;9.88;;;3.25;;
37805;SDS011;25082;50.870;0.022;2023-02-24T14:20:17;7.50;;;2.70;;
37805;SDS011;25082;50.870;0.022;2023-02-24T14:22:55;9.85;;;3.20;;
37805;SDS011;25082;50.870;0.022;2023-02-24T14:25:25;8.80;;;2.70;;
37805;SDS011;25082;50.870;0.022;2023-02-24T14:27:54;13.88;;;3.15;;
37805;SDS011;25082;50.870;0.022;2023-02-24T14:33:03;24.83;;;4.82;;
37805;SDS011;25082;50.870;0.022;2023-02-24T14:37:57;31.60;;;5.03;;
37805;SDS011;25082;50.870;0.022;2023-02-24T14:40:23;23.45;;;5.68;;
37805;SDS011;25082;50.870;0.022;2023-02-24T14:42:50;37.13;;;7.25;;
37805;SDS011;25082;50.870;0.022;2023-02-24T14:45:19;50.20;;;8.85;;
37805;SDS011;25082;50.870;0.022;2023-02-24T14:47:50;103.03;;;14.60;;
37805;SDS011;25082;50.870;0.022;2023-02-24T14:50:18;67.30;;;11.32;;
37805;SDS011;25082;50.870;0.022;2023-02-24T14:52:52;85.47;;;13.32;;
37805;SDS011;25082;50.870;0.022;2023-02-24T15:00:26;28.48;;;6.80;;
37805;SDS011;25082;50.870;0.022;2023-02-24T15:05:42;34.33;;;6.78;;
37805;SDS011;25082;50.870;0.022;2023-02-24T15:08:15;31.55;;;7.05;;
37805;SDS011;25082;50.870;0.022;2023-02-24T15:10:47;27.10;;;5.60;;
37805;SDS011;25082;50.870;0.022;2023-02-24T15:13:15;30.38;;;6.10;;
37805;SDS011;25082;50.870;0.022;2023-02-24T15:15:49;23.65;;;4.65;;
37805;SDS011;25082;50.870;0.022;2023-02-24T15:18:36;23.90;;;5.10;;
37805;SDS011;25082;50.870;0.022;2023-02-24T15:21:03;22.50;;;5.55;;
37805;SDS011;25082;50.870;0.022;2023-02-24T15:23:34;24.77;;;5.07;;
37805;SDS011;25082;50.870;0.022;2023-02-24T15:26:01;18.95;;;5.05;;
37805;SDS011;25082;50.870;0.022;2023-02-24T15:28:33;24.15;;;4.82;;
37805;SDS011;25082;50.870;0.022;2023-02-24T15:31:02;19.25;;;5.38;;
37805;SDS011;25082;50.870;0.022;2023-02-24T15:33:35;18.95;;;4.57;;
37805;SDS011;25082;50.870;0.022;2023-02-24T15:36:10;20.20;;;4.53;;
37805;SDS011;25082;50.870;0.022;2023-02-24T15:38:41;22.65;;;4.47;;
37805;SDS011;25082;50.870;0.022;2023-02-24T15:41:09;20.75;;;4.72;;
37805;SDS011;25082;50.870;0.022;2023-02-24T15:48:43;17.08;;;6.25;;
37805;SDS011;25082;50.870;0.022;2023-02-24T15:51:21;13.43;;;5.78;;
37805;SDS011;25082;50.870;0.022;2023-02-24T15:54:04;18.23;;;5.82;;
37805;SDS011;25082;50.870;0.022;2023-02-24T15:56:32;12.07;;;5.35;;
37805;SDS011;25082;50.870;0.022;2023-02-24T15:58:59;14.18;;;5.45;;
37805;SDS011;25082;50.870;0.022;2023-02-24T16:01:26;12.75;;;5.30;;
37805;SDS011;25082;50.870;0.022;2023-02-24T16:03:53;13.43;;;4.45;;
37805;SDS011;25082;50.870;0.022;2023-02-24T16:06:19;13.55;;;4.15;;
37805;SDS011;25082;50.870;0.022;2023-02-24T16:08:47;12.63;;;4.00;;
37805;SDS011;25082;50.870;0.022;2023-02-24T16:11:14;11.27;;;3.90;;
37805;SDS011;25082;50.870;0.022;2023-02-24T16:13:44;15.88;;;4.20;;
37805;SDS011;25082;50.870;0.022;2023-02-24T16:16:15;7.95;;;2.80;;
37805;SDS011;25082;50.870;0.022;2023-02-24T16:18:40;15.02;;;4.50;;
37805;SDS011;25082;50.870;0.022;2023-02-24T16:21:06;8.00;;;2.95;;
37805;SDS011;25082;50.870;0.022;2023-02-24T16:23:32;10.82;;;3.20;;
37805;SDS011;25082;50.870;0.022;2023-02-24T16:26:04;11.35;;;3.67;;
37805;SDS011;25082;50.870;0.022;2023-02-24T16:28:31;10.10;;;2.58;;
37805;SDS011;25082;50.870;0.022;2023-02-24T16:30:57;15.32;;;3.60;;
37805;SDS011;25082;50.870;0.022;2023-02-24T16:33:23;19.20;;;4.10;;
37805;SDS011;25082;50.870;0.022;2023-02-24T16:35:49;12.05;;;3.60;;
37805;SDS011;25082;50.870;0.022;2023-02-24T16:38:19;11.00;;;2.97;;
37805;SDS011;25082;50.870;0.022;2023-02-24T16:40:47;14.13;;;3.63;;
37805;SDS011;25082;50.870;0.022;2023-02-24T16:43:14;8.80;;;3.22;;
37805;SDS011;25082;50.870;0.022;2023-02-24T16:45:40;9.10;;;2.92;;
37805;SDS011;25082;50.870;0.022;2023-02-24T16:48:08;11.85;;;3.25;;
37805;SDS011;25082;50.870;0.022;2023-02-24T16:50:42;7.93;;;2.75;;
37805;SDS011;25082;50.870;0.022;2023-02-24T16:53:11;15.75;;;3.08;;
37805;SDS011;25082;50.870;0.022;2023-02-24T16:58:07;13.57;;;3.08;;
37805;SDS011;25082;50.870;0.022;2023-02-24T17:00:33;17.30;;;3.53;;
37805;SDS011;25082;50.870;0.022;2023-02-24T17:03:00;23.52;;;4.20;;
37805;SDS011;25082;50.870;0.022;2023-02-24T17:05:28;13.50;;;3.83;;
37805;SDS011;25082;50.870;0.022;2023-02-24T17:07:55;21.83;;;4.03;;
37805;SDS011;25082;50.870;0.022;2023-02-24T17:10:22;18.63;;;3.53;;
37805;SDS011;25082;50.870;0.022;2023-02-24T17:12:49;19.42;;;3.88;;
37805;SDS011;25082;50.870;0.022;2023-02-24T17:15:16;13.98;;;2.90;;
37805;SDS011;25082;50.870;0.022;2023-02-24T17:17:44;15.32;;;3.35;;
37805;SDS011;25082;50.870;0.022;2023-02-24T17:20:11;18.50;;;4.10;;
37805;SDS011;25082;50.870;0.022;2023-02-24T17:22:39;10.18;;;2.90;;
37805;SDS011;25082;50.870;0.022;2023-02-24T17:25:06;16.10;;;3.50;;
37805;SDS011;25082;50.870;0.022;2023-02-24T17:27:32;19.15;;;3.35;;
37805;SDS011;25082;50.870;0.022;2023-02-24T17:29:58;18.05;;;3.65;;
37805;SDS011;25082;50.870;0.022;2023-02-24T17:32:23;16.00;;;3.33;;
37805;SDS011;25082;50.870;0.022;2023-02-24T17:34:49;14.52;;;3.50;;